sensor_id;sensor_type;location;lat;lon;timestamp;temperature;humidity
54124;DHT22;55741;53.252;5.788;2023-04-16T00:02:19;8.30;99.90
54124;DHT22;55741;53.252;5.788;2023-04-16T00:04:47;8.30;99.90
54124;DHT22;55741;53.252;5.788;2023-04-16T00:07:13;8.30;99.90
54124;DHT22;55741;53.252;5.788;2023-04-16T00:09:38;8.30;99.90
54124;DHT22;55741;53.252;5.788;2023-04-16T00:12:05;8.30;99.90
54124;DHT22;55741;53.252;5.788;2023-04-16T00:14:31;8.30;99.90
54124;DHT22;55741;53.252;5.788;2023-04-16T00:16:57;8.30;99.90
54124;DHT22;55741;53.252;5.788;2023-04-16T00:19:23;8.30;99.90
54124;DHT22;55741;53.252;5.788;2023-04-16T00:21:49;8.30;99.90
54124;DHT22;55741;53.252;5.788;2023-04-16T00:24:14;8.30;99.90
54124;DHT22;55741;53.252;5.788;2023-04-16T00:26:40;8.30;99.90
54124;DHT22;55741;53.252;5.788;2023-04-16T00:29:08;8.30;99.90
54124;DHT22;55741;53.252;5.788;2023-04-16T00:31:35;8.30;99.90
54124;DHT22;55741;53.252;5.788;2023-04-16T00:34:01;8.30;99.90
54124;DHT22;55741;53.252;5.788;2023-04-16T00:36:27;8.30;99.90
54124;DHT22;55741;53.252;5.788;2023-04-16T00:38:54;8.30;99.90
54124;DHT22;55741;53.252;5.788;2023-04-16T00:41:20;8.30;99.90
54124;DHT22;55741;53.252;5.788;2023-04-16T00:43:48;8.30;99.90
54124;DHT22;55741;53.252;5.788;2023-04-16T00:46:15;8.30;99.90
54124;DHT22;55741;53.252;5.788;2023-04-16T00:48:42;8.40;99.90
54124;DHT22;55741;53.252;5.788;2023-04-16T00:51:10;8.40;99.90
54124;DHT22;55741;53.252;5.788;2023-04-16T00:53:36;8.30;99.90
54124;DHT22;55741;53.252;5.788;2023-04-16T00:56:04;8.30;99.90
54124;DHT22;55741;53.252;5.788;2023-04-16T00:58:31;8.30;99.90
54124;DHT22;55741;53.252;5.788;2023-04-16T01:00:58;8.30;99.90
54124;DHT22;55741;53.252;5.788;2023-04-16T01:03:42;8.40;99.90
54124;DHT22;55741;53.252;5.788;2023-04-16T01:06:10;8.40;99.90
54124;DHT22;55741;53.252;5.788;2023-04-16T01:08:36;8.30;99.90
54124;DHT22;55741;53.252;5.788;2023-04-16T01:11:02;8.40;99.90
54124;DHT22;55741;53.252;5.788;2023-04-16T01:13:28;8.30;99.90
54124;DHT22;55741;53.252;5.788;2023-04-16T01:15:54;8.40;99.90
54124;DHT22;55741;53.252;5.788;2023-04-16T01:18:21;8.30;99.90
54124;DHT22;55741;53.252;5.788;2023-04-16T01:20:48;8.40;99.90
54124;DHT22;55741;53.252;5.788;2023-04-16T01:23:14;8.30;99.90
54124;DHT22;55741;53.252;5.788;2023-04-16T01:25:40;8.30;99.90
54124;DHT22;55741;53.252;5.788;2023-04-16T01:28:06;8.30;99.90
54124;DHT22;55741;53.252;5.788;2023-04-16T01:30:32;8.30;99.90
54124;DHT22;55741;53.252;5.788;2023-04-16T01:32:58;8.30;99.90
54124;DHT22;55741;53.252;5.788;2023-04-16T01:35:24;8.30;99.90
54124;DHT22;55741;53.252;5.788;2023-04-16T01:37:50;8.30;99.90
54124;DHT22;55741;53.252;5.788;2023-04-16T01:40:17;8.30;99.90
54124;DHT22;55741;53.252;5.788;2023-04-16T01:42:43;8.30;99.90
54124;DHT22;55741;53.252;5.788;2023-04-16T01:45:09;8.30;99.90
54124;DHT22;55741;53.252;5.788;2023-04-16T01:47:35;8.30;99.90
54124;DHT22;55741;53.252;5.788;2023-04-16T01:50:02;8.30;99.90
54124;DHT22;55741;53.252;5.788;2023-04-16T01:52:28;8.30;99.90
54124;DHT22;55741;53.252;5.788;2023-04-16T01:54:54;8.30;99.90
54124;DHT22;55741;53.252;5.788;2023-04-16T01:57:20;8.30;99.90
54124;DHT22;55741;53.252;5.788;2023-04-16T01:59:45;8.30;99.90
54124;DHT22;55741;53.252;5.788;2023-04-16T02:02:13;8.30;99.90
54124;DHT22;55741;53.252;5.788;2023-04-16T02:04:43;8.30;99.90
54124;DHT22;55741;53.252;5.788;2023-04-16T02:07:11;8.20;99.90
54124;DHT22;55741;53.252;5.788;2023-04-16T02:09:38;8.30;99.90
54124;DHT22;55741;53.252;5.788;2023-04-16T02:12:04;8.20;99.90
54124;DHT22;55741;53.252;5.788;2023-04-16T02:14:31;8.20;99.90
54124;DHT22;55741;53.252;5.788;2023-04-16T02:16:57;8.20;99.90
54124;DHT22;55741;53.252;5.788;2023-04-16T02:19:23;8.20;99.90
54124;DHT22;55741;53.252;5.788;2023-04-16T02:21:52;8.20;99.90
54124;DHT22;55741;53.252;5.788;2023-04-16T02:24:19;8.30;99.90
54124;DHT22;55741;53.252;5.788;2023-04-16T02:26:45;8.20;99.90
54124;DHT22;55741;53.252;5.788;2023-04-16T02:29:11;8.30;99.90
54124;DHT22;55741;53.252;5.788;2023-04-16T02:31:37;8.30;99.90
54124;DHT22;55741;53.252;5.788;2023-04-16T02:34:03;8.30;99.90
54124;DHT22;55741;53.252;5.788;2023-04-16T02:36:29;8.30;99.90
54124;DHT22;55741;53.252;5.788;2023-04-16T02:38:56;8.30;99.90
54124;DHT22;55741;53.252;5.788;2023-04-16T02:41:22;8.30;99.90
54124;DHT22;55741;53.252;5.788;2023-04-16T02:43:48;8.20;99.90
54124;DHT22;55741;53.252;5.788;2023-04-16T02:46:14;8.30;99.90
54124;DHT22;55741;53.252;5.788;2023-04-16T02:48:40;8.30;99.90
54124;DHT22;55741;53.252;5.788;2023-04-16T02:51:05;8.30;99.90
54124;DHT22;55741;53.252;5.788;2023-04-16T02:53:31;8.30;99.90
54124;DHT22;55741;53.252;5.788;2023-04-16T02:55:57;8.30;99.90
54124;DHT22;55741;53.252;5.788;2023-04-16T02:58:24;8.30;99.90
54124;DHT22;55741;53.252;5.788;2023-04-16T03:00:51;8.30;99.90
54124;DHT22;55741;53.252;5.788;2023-04-16T03:03:18;8.30;99.90
54124;DHT22;55741;53.252;5.788;2023-04-16T03:05:44;8.30;99.90
54124;DHT22;55741;53.252;5.788;2023-04-16T03:08:11;8.30;99.90
54124;DHT22;55741;53.252;5.788;2023-04-16T03:10:37;8.30;99.90
54124;DHT22;55741;53.252;5.788;2023-04-16T03:13:03;8.30;99.90
54124;DHT22;55741;53.252;5.788;2023-04-16T03:15:30;8.40;99.90
54124;DHT22;55741;53.252;5.788;2023-04-16T03:17:56;8.40;99.90
54124;DHT22;55741;53.252;5.788;2023-04-16T03:20:22;8.40;99.90
54124;DHT22;55741;53.252;5.788;2023-04-16T03:22:49;8.40;99.90
54124;DHT22;55741;53.252;5.788;2023-04-16T03:25:17;8.40;99.90
54124;DHT22;55741;53.252;5.788;2023-04-16T03:27:43;8.40;99.90
54124;DHT22;55741;53.252;5.788;2023-04-16T03:30:12;8.40;99.90
54124;DHT22;55741;53.252;5.788;2023-04-16T03:32:39;8.40;99.90
54124;DHT22;55741;53.252;5.788;2023-04-16T03:35:06;8.40;99.90
54124;DHT22;55741;53.252;5.788;2023-04-16T03:37:32;8.40;99.90
54124;DHT22;55741;53.252;5.788;2023-04-16T03:39:58;8.40;99.90
54124;DHT22;55741;53.252;5.788;2023-04-16T03:42:24;8.40;99.90
54124;DHT22;55741;53.252;5.788;2023-04-16T03:44:50;8.40;99.90
54124;DHT22;55741;53.252;5.788;2023-04-16T03:47:21;8.50;99.90
54124;DHT22;55741;53.252;5.788;2023-04-16T03:49:46;8.50;99.90
54124;DHT22;55741;53.252;5.788;2023-04-16T03:52:12;8.40;99.90
54124;DHT22;55741;53.252;5.788;2023-04-16T03:54:38;8.50;99.90
54124;DHT22;55741;53.252;5.788;2023-04-16T03:57:04;8.50;99.90
54124;DHT22;55741;53.252;5.788;2023-04-16T03:59:30;8.50;99.90
54124;DHT22;55741;53.252;5.788;2023-04-16T04:01:56;8.50;99.90
54124;DHT22;55741;53.252;5.788;2023-04-16T04:04:22;8.50;99.90
54124;DHT22;55741;53.252;5.788;2023-04-16T04:06:47;8.50;99.90
54124;DHT22;55741;53.252;5.788;2023-04-16T04:09:15;8.50;99.90
54124;DHT22;55741;53.252;5.788;2023-04-16T04:11:41;8.50;99.90
54124;DHT22;55741;53.252;5.788;2023-04-16T04:14:07;8.50;99.90
54124;DHT22;55741;53.252;5.788;2023-04-16T04:16:33;8.50;99.90
54124;DHT22;55741;53.252;5.788;2023-04-16T04:18:59;8.50;99.90
54124;DHT22;55741;53.252;5.788;2023-04-16T04:21:28;8.50;99.90
54124;DHT22;55741;53.252;5.788;2023-04-16T04:23:54;8.50;99.90
54124;DHT22;55741;53.252;5.788;2023-04-16T04:26:19;8.50;99.90
54124;DHT22;55741;53.252;5.788;2023-04-16T04:28:45;8.50;99.90
54124;DHT22;55741;53.252;5.788;2023-04-16T04:31:12;8.50;99.90
54124;DHT22;55741;53.252;5.788;2023-04-16T04:33:38;8.50;99.90
54124;DHT22;55741;53.252;5.788;2023-04-16T04:36:04;8.50;99.90
54124;DHT22;55741;53.252;5.788;2023-04-16T04:38:30;8.50;99.90
54124;DHT22;55741;53.252;5.788;2023-04-16T04:40:56;8.40;99.90
54124;DHT22;55741;53.252;5.788;2023-04-16T04:43:22;8.40;99.90
54124;DHT22;55741;53.252;5.788;2023-04-16T04:45:48;8.40;99.90
54124;DHT22;55741;53.252;5.788;2023-04-16T04:48:15;8.40;99.90
54124;DHT22;55741;53.252;5.788;2023-04-16T04:50:41;8.40;99.90
54124;DHT22;55741;53.252;5.788;2023-04-16T04:53:07;8.40;99.90
54124;DHT22;55741;53.252;5.788;2023-04-16T04:55:37;8.50;99.90
54124;DHT22;55741;53.252;5.788;2023-04-16T04:58:04;8.40;99.90
54124;DHT22;55741;53.252;5.788;2023-04-16T05:00:31;8.40;99.90
54124;DHT22;55741;53.252;5.788;2023-04-16T05:03:00;8.40;99.90
54124;DHT22;55741;53.252;5.788;2023-04-16T05:05:26;8.50;99.90
54124;DHT22;55741;53.252;5.788;2023-04-16T05:07:52;8.50;99.90
54124;DHT22;55741;53.252;5.788;2023-04-16T05:10:19;8.40;99.90
54124;DHT22;55741;53.252;5.788;2023-04-16T05:12:48;8.50;99.90
54124;DHT22;55741;53.252;5.788;2023-04-16T05:15:15;8.50;99.90
54124;DHT22;55741;53.252;5.788;2023-04-16T05:17:40;8.40;99.90
54124;DHT22;55741;53.252;5.788;2023-04-16T05:20:08;8.40;99.90
54124;DHT22;55741;53.252;5.788;2023-04-16T05:22:34;8.40;99.90
54124;DHT22;55741;53.252;5.788;2023-04-16T05:25:00;8.40;99.90
54124;DHT22;55741;53.252;5.788;2023-04-16T05:27:25;8.50;99.90
54124;DHT22;55741;53.252;5.788;2023-04-16T05:29:51;8.50;99.90
54124;DHT22;55741;53.252;5.788;2023-04-16T05:32:17;8.40;99.90
54124;DHT22;55741;53.252;5.788;2023-04-16T05:34:43;8.50;99.90
54124;DHT22;55741;53.252;5.788;2023-04-16T05:37:09;8.40;99.90
54124;DHT22;55741;53.252;5.788;2023-04-16T05:39:35;8.50;99.90
54124;DHT22;55741;53.252;5.788;2023-04-16T05:42:00;8.50;99.90
54124;DHT22;55741;53.252;5.788;2023-04-16T05:44:26;8.50;99.90
54124;DHT22;55741;53.252;5.788;2023-04-16T05:46:52;8.50;99.90
54124;DHT22;55741;53.252;5.788;2023-04-16T05:49:18;8.40;99.90
54124;DHT22;55741;53.252;5.788;2023-04-16T05:51:44;8.50;99.90
54124;DHT22;55741;53.252;5.788;2023-04-16T05:54:10;8.50;99.90
54124;DHT22;55741;53.252;5.788;2023-04-16T05:56:36;8.50;99.90
54124;DHT22;55741;53.252;5.788;2023-04-16T05:59:02;8.50;99.90
54124;DHT22;55741;53.252;5.788;2023-04-16T06:01:27;8.50;99.90
54124;DHT22;55741;53.252;5.788;2023-04-16T06:03:53;8.50;99.90
54124;DHT22;55741;53.252;5.788;2023-04-16T06:06:19;8.50;99.90
54124;DHT22;55741;53.252;5.788;2023-04-16T06:08:45;8.60;99.90
54124;DHT22;55741;53.252;5.788;2023-04-16T06:11:12;8.50;99.90
54124;DHT22;55741;53.252;5.788;2023-04-16T06:13:38;8.50;99.90
54124;DHT22;55741;53.252;5.788;2023-04-16T06:16:04;8.60;99.90
54124;DHT22;55741;53.252;5.788;2023-04-16T06:18:30;8.50;99.90
54124;DHT22;55741;53.252;5.788;2023-04-16T06:20:56;8.50;99.90
54124;DHT22;55741;53.252;5.788;2023-04-16T06:23:23;8.50;99.90
54124;DHT22;55741;53.252;5.788;2023-04-16T06:25:49;8.60;99.90
54124;DHT22;55741;53.252;5.788;2023-04-16T06:28:15;8.60;99.90
54124;DHT22;55741;53.252;5.788;2023-04-16T06:30:41;8.60;99.90
54124;DHT22;55741;53.252;5.788;2023-04-16T06:33:07;8.60;99.90
54124;DHT22;55741;53.252;5.788;2023-04-16T06:35:33;8.60;99.90
54124;DHT22;55741;53.252;5.788;2023-04-16T06:37:58;8.60;99.90
54124;DHT22;55741;53.252;5.788;2023-04-16T06:40:24;8.60;99.90
54124;DHT22;55741;53.252;5.788;2023-04-16T06:42:50;8.60;99.90
54124;DHT22;55741;53.252;5.788;2023-04-16T06:45:16;8.70;99.90
54124;DHT22;55741;53.252;5.788;2023-04-16T06:47:42;8.70;99.90
54124;DHT22;55741;53.252;5.788;2023-04-16T06:50:08;8.70;99.90
54124;DHT22;55741;53.252;5.788;2023-04-16T06:52:34;8.70;99.90
54124;DHT22;55741;53.252;5.788;2023-04-16T06:55:00;8.60;99.90
54124;DHT22;55741;53.252;5.788;2023-04-16T06:57:27;8.60;99.90
54124;DHT22;55741;53.252;5.788;2023-04-16T06:59:52;8.60;99.90
54124;DHT22;55741;53.252;5.788;2023-04-16T07:02:18;8.60;99.90
54124;DHT22;55741;53.252;5.788;2023-04-16T07:04:44;8.60;99.90
54124;DHT22;55741;53.252;5.788;2023-04-16T07:07:10;8.60;99.90
54124;DHT22;55741;53.252;5.788;2023-04-16T07:09:36;8.60;99.90
54124;DHT22;55741;53.252;5.788;2023-04-16T07:12:04;8.60;99.90
54124;DHT22;55741;53.252;5.788;2023-04-16T07:14:30;8.70;99.90
54124;DHT22;55741;53.252;5.788;2023-04-16T07:16:55;8.70;99.90
54124;DHT22;55741;53.252;5.788;2023-04-16T07:19:21;8.70;99.90
54124;DHT22;55741;53.252;5.788;2023-04-16T07:21:47;8.70;99.90
54124;DHT22;55741;53.252;5.788;2023-04-16T07:24:13;8.70;99.90
54124;DHT22;55741;53.252;5.788;2023-04-16T07:26:39;8.70;99.90
54124;DHT22;55741;53.252;5.788;2023-04-16T07:29:05;8.70;99.90
54124;DHT22;55741;53.252;5.788;2023-04-16T07:31:31;8.60;99.90
54124;DHT22;55741;53.252;5.788;2023-04-16T07:33:57;8.70;99.90
54124;DHT22;55741;53.252;5.788;2023-04-16T07:36:23;8.70;99.90
54124;DHT22;55741;53.252;5.788;2023-04-16T07:38:49;8.70;99.90
54124;DHT22;55741;53.252;5.788;2023-04-16T07:41:14;8.70;99.90
54124;DHT22;55741;53.252;5.788;2023-04-16T07:43:40;8.80;99.90
54124;DHT22;55741;53.252;5.788;2023-04-16T07:46:06;8.80;99.90
54124;DHT22;55741;53.252;5.788;2023-04-16T07:48:32;8.80;99.90
54124;DHT22;55741;53.252;5.788;2023-04-16T07:50:58;8.90;99.90
54124;DHT22;55741;53.252;5.788;2023-04-16T07:53:24;8.90;99.90
54124;DHT22;55741;53.252;5.788;2023-04-16T07:55:50;8.80;99.90
54124;DHT22;55741;53.252;5.788;2023-04-16T07:58:16;8.90;99.90
54124;DHT22;55741;53.252;5.788;2023-04-16T08:00:42;8.90;99.90
54124;DHT22;55741;53.252;5.788;2023-04-16T08:03:08;8.90;99.90
54124;DHT22;55741;53.252;5.788;2023-04-16T08:05:34;8.90;99.90
54124;DHT22;55741;53.252;5.788;2023-04-16T08:07:59;8.90;99.90
54124;DHT22;55741;53.252;5.788;2023-04-16T08:10:25;8.90;99.90
54124;DHT22;55741;53.252;5.788;2023-04-16T08:12:53;8.90;99.90
54124;DHT22;55741;53.252;5.788;2023-04-16T08:15:19;9.00;99.90
54124;DHT22;55741;53.252;5.788;2023-04-16T08:17:45;8.90;99.90
54124;DHT22;55741;53.252;5.788;2023-04-16T08:20:11;9.00;99.90
54124;DHT22;55741;53.252;5.788;2023-04-16T08:22:37;9.00;99.90
54124;DHT22;55741;53.252;5.788;2023-04-16T08:25:03;9.10;99.90
54124;DHT22;55741;53.252;5.788;2023-04-16T08:27:29;9.10;99.90
54124;DHT22;55741;53.252;5.788;2023-04-16T08:29:55;9.20;99.90
54124;DHT22;55741;53.252;5.788;2023-04-16T08:32:21;9.20;99.90
54124;DHT22;55741;53.252;5.788;2023-04-16T08:34:47;9.30;99.90
54124;DHT22;55741;53.252;5.788;2023-04-16T08:37:13;9.30;99.90
54124;DHT22;55741;53.252;5.788;2023-04-16T08:39:38;9.30;99.90
54124;DHT22;55741;53.252;5.788;2023-04-16T08:42:05;9.40;99.90
54124;DHT22;55741;53.252;5.788;2023-04-16T08:44:36;9.40;99.90
54124;DHT22;55741;53.252;5.788;2023-04-16T08:47:08;9.40;99.90
54124;DHT22;55741;53.252;5.788;2023-04-16T08:49:35;9.40;99.90
54124;DHT22;55741;53.252;5.788;2023-04-16T08:52:05;9.50;99.90
54124;DHT22;55741;53.252;5.788;2023-04-16T08:54:51;9.40;99.90
54124;DHT22;55741;53.252;5.788;2023-04-16T08:57:19;9.50;99.90
54124;DHT22;55741;53.252;5.788;2023-04-16T08:59:47;9.50;99.90
54124;DHT22;55741;53.252;5.788;2023-04-16T09:02:13;9.50;99.90
54124;DHT22;55741;53.252;5.788;2023-04-16T09:04:40;9.50;99.90
54124;DHT22;55741;53.252;5.788;2023-04-16T09:07:10;9.60;99.90
54124;DHT22;55741;53.252;5.788;2023-04-16T09:09:37;9.60;99.90
54124;DHT22;55741;53.252;5.788;2023-04-16T09:12:04;9.70;99.90
54124;DHT22;55741;53.252;5.788;2023-04-16T09:14:32;9.70;99.90
54124;DHT22;55741;53.252;5.788;2023-04-16T09:16:58;9.80;99.90
54124;DHT22;55741;53.252;5.788;2023-04-16T09:19:27;9.80;99.90
54124;DHT22;55741;53.252;5.788;2023-04-16T09:21:52;9.80;99.90
54124;DHT22;55741;53.252;5.788;2023-04-16T09:24:18;9.80;99.90
54124;DHT22;55741;53.252;5.788;2023-04-16T09:26:45;9.80;99.90
54124;DHT22;55741;53.252;5.788;2023-04-16T09:29:11;9.90;99.90
54124;DHT22;55741;53.252;5.788;2023-04-16T09:32:07;10.00;99.90
54124;DHT22;55741;53.252;5.788;2023-04-16T09:34:37;10.00;99.90
54124;DHT22;55741;53.252;5.788;2023-04-16T09:37:18;10.00;99.90
54124;DHT22;55741;53.252;5.788;2023-04-16T09:39:44;10.10;99.90
54124;DHT22;55741;53.252;5.788;2023-04-16T09:42:30;10.10;99.90
54124;DHT22;55741;53.252;5.788;2023-04-16T09:44:57;10.10;99.90
54124;DHT22;55741;53.252;5.788;2023-04-16T09:47:25;10.20;99.90
54124;DHT22;55741;53.252;5.788;2023-04-16T09:49:51;10.20;99.90
54124;DHT22;55741;53.252;5.788;2023-04-16T09:52:19;10.10;99.90
54124;DHT22;55741;53.252;5.788;2023-04-16T09:54:49;10.10;99.90
54124;DHT22;55741;53.252;5.788;2023-04-16T09:57:23;10.20;99.90
54124;DHT22;55741;53.252;5.788;2023-04-16T09:59:53;10.20;99.90
54124;DHT22;55741;53.252;5.788;2023-04-16T10:02:26;10.30;99.90
54124;DHT22;55741;53.252;5.788;2023-04-16T10:04:53;10.30;99.90
54124;DHT22;55741;53.252;5.788;2023-04-16T10:07:20;10.30;99.90
54124;DHT22;55741;53.252;5.788;2023-04-16T10:09:47;10.30;99.90
54124;DHT22;55741;53.252;5.788;2023-04-16T10:12:14;10.40;99.90
54124;DHT22;55741;53.252;5.788;2023-04-16T10:14:42;10.40;99.90
54124;DHT22;55741;53.252;5.788;2023-04-16T10:17:08;10.40;99.90
54124;DHT22;55741;53.252;5.788;2023-04-16T10:19:34;10.40;99.90
54124;DHT22;55741;53.252;5.788;2023-04-16T10:22:01;10.40;99.90
54124;DHT22;55741;53.252;5.788;2023-04-16T10:24:29;10.40;99.90
54124;DHT22;55741;53.252;5.788;2023-04-16T10:26:56;10.40;99.90
54124;DHT22;55741;53.252;5.788;2023-04-16T10:29:23;10.40;99.90
54124;DHT22;55741;53.252;5.788;2023-04-16T10:31:50;10.40;99.90
54124;DHT22;55741;53.252;5.788;2023-04-16T10:34:17;10.40;99.90
54124;DHT22;55741;53.252;5.788;2023-04-16T10:36:48;10.50;99.90
54124;DHT22;55741;53.252;5.788;2023-04-16T10:39:20;10.40;99.90
54124;DHT22;55741;53.252;5.788;2023-04-16T10:41:46;10.40;99.90
54124;DHT22;55741;53.252;5.788;2023-04-16T10:44:12;10.30;99.90
54124;DHT22;55741;53.252;5.788;2023-04-16T10:46:39;10.30;99.90
54124;DHT22;55741;53.252;5.788;2023-04-16T10:49:16;10.40;99.90
54124;DHT22;55741;53.252;5.788;2023-04-16T10:52:00;10.40;99.90
54124;DHT22;55741;53.252;5.788;2023-04-16T10:54:29;10.40;99.90
54124;DHT22;55741;53.252;5.788;2023-04-16T10:56:57;10.50;99.90
54124;DHT22;55741;53.252;5.788;2023-04-16T10:59:23;10.50;99.90
54124;DHT22;55741;53.252;5.788;2023-04-16T11:01:52;10.50;99.90
54124;DHT22;55741;53.252;5.788;2023-04-16T11:09:53;10.50;99.90
54124;DHT22;55741;53.252;5.788;2023-04-16T11:12:23;10.40;99.90
54124;DHT22;55741;53.252;5.788;2023-04-16T11:20:02;10.50;99.90
54124;DHT22;55741;53.252;5.788;2023-04-16T11:22:29;10.50;99.90
54124;DHT22;55741;53.252;5.788;2023-04-16T11:24:56;10.60;99.90
54124;DHT22;55741;53.252;5.788;2023-04-16T11:27:25;10.60;99.90
54124;DHT22;55741;53.252;5.788;2023-04-16T11:32:23;10.70;99.90
54124;DHT22;55741;53.252;5.788;2023-04-16T11:34:49;10.70;99.90
54124;DHT22;55741;53.252;5.788;2023-04-16T11:37:19;10.80;99.90
54124;DHT22;55741;53.252;5.788;2023-04-16T11:39:51;10.70;99.90
54124;DHT22;55741;53.252;5.788;2023-04-16T11:42:21;10.70;99.90
54124;DHT22;55741;53.252;5.788;2023-04-16T11:44:56;10.70;99.90
54124;DHT22;55741;53.252;5.788;2023-04-16T11:47:23;10.70;99.90
54124;DHT22;55741;53.252;5.788;2023-04-16T11:49:50;10.60;99.90
54124;DHT22;55741;53.252;5.788;2023-04-16T11:54:54;10.70;99.90
54124;DHT22;55741;53.252;5.788;2023-04-16T11:57:30;10.80;99.90
54124;DHT22;55741;53.252;5.788;2023-04-16T11:59:58;10.80;99.90
54124;DHT22;55741;53.252;5.788;2023-04-16T12:02:34;10.90;99.90
54124;DHT22;55741;53.252;5.788;2023-04-16T12:05:02;10.90;99.90
54124;DHT22;55741;53.252;5.788;2023-04-16T12:07:28;10.90;99.90
54124;DHT22;55741;53.252;5.788;2023-04-16T12:10:05;11.00;99.90
54124;DHT22;55741;53.252;5.788;2023-04-16T12:12:32;11.00;99.90
54124;DHT22;55741;53.252;5.788;2023-04-16T12:15:02;10.90;99.90
54124;DHT22;55741;53.252;5.788;2023-04-16T12:17:30;10.90;99.90
54124;DHT22;55741;53.252;5.788;2023-04-16T12:20:01;10.90;99.90
54124;DHT22;55741;53.252;5.788;2023-04-16T12:22:29;10.90;99.90
54124;DHT22;55741;53.252;5.788;2023-04-16T12:24:59;10.90;99.90
54124;DHT22;55741;53.252;5.788;2023-04-16T12:27:25;11.10;99.90
54124;DHT22;55741;53.252;5.788;2023-04-16T12:30:05;11.30;99.90
54124;DHT22;55741;53.252;5.788;2023-04-16T12:32:32;11.40;99.90
54124;DHT22;55741;53.252;5.788;2023-04-16T12:34:58;11.50;99.90
54124;DHT22;55741;53.252;5.788;2023-04-16T12:37:24;11.50;99.90
54124;DHT22;55741;53.252;5.788;2023-04-16T12:39:49;11.60;99.90
54124;DHT22;55741;53.252;5.788;2023-04-16T12:42:15;11.70;99.90
54124;DHT22;55741;53.252;5.788;2023-04-16T12:44:41;11.80;99.90
54124;DHT22;55741;53.252;5.788;2023-04-16T12:47:07;11.80;99.90
54124;DHT22;55741;53.252;5.788;2023-04-16T12:49:33;11.80;99.90
54124;DHT22;55741;53.252;5.788;2023-04-16T12:52:00;11.80;99.90
54124;DHT22;55741;53.252;5.788;2023-04-16T12:54:26;11.80;99.90
54124;DHT22;55741;53.252;5.788;2023-04-16T12:56:58;11.70;99.90
54124;DHT22;55741;53.252;5.788;2023-04-16T12:59:24;11.80;99.90
54124;DHT22;55741;53.252;5.788;2023-04-16T13:01:50;11.80;99.90
54124;DHT22;55741;53.252;5.788;2023-04-16T13:04:16;11.90;99.90
54124;DHT22;55741;53.252;5.788;2023-04-16T13:06:43;11.90;99.90
54124;DHT22;55741;53.252;5.788;2023-04-16T13:09:10;12.00;99.90
54124;DHT22;55741;53.252;5.788;2023-04-16T13:11:36;12.00;99.90
54124;DHT22;55741;53.252;5.788;2023-04-16T13:14:02;11.90;99.90
54124;DHT22;55741;53.252;5.788;2023-04-16T13:16:29;11.90;99.90
54124;DHT22;55741;53.252;5.788;2023-04-16T13:18:55;11.90;99.90
54124;DHT22;55741;53.252;5.788;2023-04-16T13:21:21;12.00;99.90
54124;DHT22;55741;53.252;5.788;2023-04-16T13:23:48;12.00;99.90
54124;DHT22;55741;53.252;5.788;2023-04-16T13:26:14;12.10;99.90
54124;DHT22;55741;53.252;5.788;2023-04-16T13:28:40;12.10;99.90
54124;DHT22;55741;53.252;5.788;2023-04-16T13:31:06;12.00;99.90
54124;DHT22;55741;53.252;5.788;2023-04-16T13:33:32;11.90;99.90
54124;DHT22;55741;53.252;5.788;2023-04-16T13:35:58;11.90;99.90
54124;DHT22;55741;53.252;5.788;2023-04-16T13:38:24;11.90;99.90
54124;DHT22;55741;53.252;5.788;2023-04-16T13:40:50;11.90;99.90
54124;DHT22;55741;53.252;5.788;2023-04-16T13:43:15;12.00;99.90
54124;DHT22;55741;53.252;5.788;2023-04-16T13:45:43;12.00;99.90
54124;DHT22;55741;53.252;5.788;2023-04-16T13:48:09;12.10;99.90
54124;DHT22;55741;53.252;5.788;2023-04-16T13:50:35;12.00;99.90
54124;DHT22;55741;53.252;5.788;2023-04-16T13:53:01;12.00;99.90
54124;DHT22;55741;53.252;5.788;2023-04-16T13:55:30;11.80;99.90
54124;DHT22;55741;53.252;5.788;2023-04-16T13:57:56;11.90;99.90
54124;DHT22;55741;53.252;5.788;2023-04-16T14:00:22;11.90;99.90
54124;DHT22;55741;53.252;5.788;2023-04-16T14:02:48;11.90;99.90
54124;DHT22;55741;53.252;5.788;2023-04-16T14:05:14;11.90;99.90
54124;DHT22;55741;53.252;5.788;2023-04-16T14:07:40;11.80;99.90
54124;DHT22;55741;53.252;5.788;2023-04-16T14:10:06;11.80;99.90
54124;DHT22;55741;53.252;5.788;2023-04-16T14:12:33;11.80;99.90
54124;DHT22;55741;53.252;5.788;2023-04-16T14:14:59;11.60;99.90
54124;DHT22;55741;53.252;5.788;2023-04-16T14:17:27;11.60;99.90
54124;DHT22;55741;53.252;5.788;2023-04-16T14:19:53;11.50;99.90
54124;DHT22;55741;53.252;5.788;2023-04-16T14:22:19;11.40;99.90
54124;DHT22;55741;53.252;5.788;2023-04-16T14:24:45;11.40;99.90
54124;DHT22;55741;53.252;5.788;2023-04-16T14:27:11;11.40;99.90
54124;DHT22;55741;53.252;5.788;2023-04-16T14:29:37;11.40;99.90
54124;DHT22;55741;53.252;5.788;2023-04-16T14:32:02;11.40;99.90
54124;DHT22;55741;53.252;5.788;2023-04-16T14:34:28;11.40;99.90
54124;DHT22;55741;53.252;5.788;2023-04-16T14:36:54;11.50;99.90
54124;DHT22;55741;53.252;5.788;2023-04-16T14:39:20;11.60;99.90
54124;DHT22;55741;53.252;5.788;2023-04-16T14:41:46;11.60;99.90
54124;DHT22;55741;53.252;5.788;2023-04-16T14:44:12;11.70;99.90
54124;DHT22;55741;53.252;5.788;2023-04-16T14:46:37;11.80;99.90
54124;DHT22;55741;53.252;5.788;2023-04-16T14:49:05;11.70;99.90
54124;DHT22;55741;53.252;5.788;2023-04-16T14:51:31;11.90;99.90
54124;DHT22;55741;53.252;5.788;2023-04-16T14:53:57;11.90;99.90
54124;DHT22;55741;53.252;5.788;2023-04-16T14:56:23;12.00;99.90
54124;DHT22;55741;53.252;5.788;2023-04-16T14:58:48;12.00;99.90
54124;DHT22;55741;53.252;5.788;2023-04-16T15:01:14;11.90;99.90
54124;DHT22;55741;53.252;5.788;2023-04-16T15:03:40;11.90;99.90
54124;DHT22;55741;53.252;5.788;2023-04-16T15:06:07;11.80;99.90
54124;DHT22;55741;53.252;5.788;2023-04-16T15:08:33;11.80;99.90
54124;DHT22;55741;53.252;5.788;2023-04-16T15:10:59;11.70;99.90
54124;DHT22;55741;53.252;5.788;2023-04-16T15:13:25;11.70;99.90
54124;DHT22;55741;53.252;5.788;2023-04-16T15:15:59;11.70;99.90
54124;DHT22;55741;53.252;5.788;2023-04-16T15:18:27;11.60;99.90
54124;DHT22;55741;53.252;5.788;2023-04-16T15:20:54;11.60;99.90
54124;DHT22;55741;53.252;5.788;2023-04-16T15:23:20;11.60;99.90
54124;DHT22;55741;53.252;5.788;2023-04-16T15:25:46;11.50;99.90
54124;DHT22;55741;53.252;5.788;2023-04-16T15:28:12;11.50;99.90
54124;DHT22;55741;53.252;5.788;2023-04-16T15:30:41;11.50;99.90
54124;DHT22;55741;53.252;5.788;2023-04-16T15:33:07;11.50;99.90
54124;DHT22;55741;53.252;5.788;2023-04-16T15:35:36;11.40;99.90
54124;DHT22;55741;53.252;5.788;2023-04-16T15:38:06;11.40;99.90
54124;DHT22;55741;53.252;5.788;2023-04-16T15:40:32;11.30;99.90
54124;DHT22;55741;53.252;5.788;2023-04-16T15:42:58;11.30;99.90
54124;DHT22;55741;53.252;5.788;2023-04-16T15:45:24;11.30;99.90
54124;DHT22;55741;53.252;5.788;2023-04-16T15:47:51;11.20;99.90
54124;DHT22;55741;53.252;5.788;2023-04-16T15:50:17;11.10;99.90
54124;DHT22;55741;53.252;5.788;2023-04-16T15:52:44;11.10;99.90
54124;DHT22;55741;53.252;5.788;2023-04-16T15:55:10;11.10;99.90